Time;durP1;ratioP1;P1;durP2;ratioP2;P2;SDS_P1;SDS_P2;PMS_P1;PMS_P2;Temp;Humidity;BMP_temperature;BMP_pressure;BME280_temperature;BME280_humidity;BME280_pressure;Samples;Min_cycle;Max_cycle;Signal;HPM_P1;HPM_P2
2023/10/07 00:00:26;;;;;;;6.55;2.92;;;15.90;99.90;;;;;;5072034;28;20048;-75
2023/10/07 00:02:53;;;;;;;8.30;2.72;;;15.90;99.90;;;;;;5075048;28;20063;-77
2023/10/07 00:05:26;;;;;;;7.35;3.03;;;16.00;99.90;;;;;;5075605;28;20049;-77
2023/10/07 00:07:55;;;;;;;9.02;3.42;;;15.90;99.90;;;;;;5076561;28;20056;-76
2023/10/07 00:10:25;;;;;;;6.80;2.80;;;16.00;99.90;;;;;;5075408;28;20056;-77
2023/10/07 00:12:52;;;;;;;6.85;2.90;;;16.00;99.90;;;;;;5077295;28;20056;-76
2023/10/07 00:15:21;;;;;;;7.03;2.90;;;16.00;99.90;;;;;;5076334;28;20569;-77
2023/10/07 00:17:49;;;;;;;8.57;2.60;;;15.90;99.90;;;;;;5076342;28;20044;-77
2023/10/07 00:20:20;;;;;;;10.85;2.80;;;16.00;99.90;;;;;;5076162;28;20054;-77
2023/10/07 00:22:49;;;;;;;8.52;2.70;;;16.00;99.90;;;;;;5076675;28;20378;-75
2023/10/07 00:25:19;;;;;;;6.28;3.15;;;16.00;99.90;;;;;;5075469;28;20382;-76
2023/10/07 00:27:48;;;;;;;7.95;2.63;;;16.10;99.90;;;;;;5075469;28;20048;-77
2023/10/07 00:30:16;;;;;;;6.22;2.35;;;16.00;99.90;;;;;;5076120;28;20080;-77
2023/10/07 00:32:45;;;;;;;7.82;3.00;;;16.00;99.90;;;;;;5075376;28;20044;-77
2023/10/07 00:35:11;;;;;;;9.15;3.60;;;16.00;99.90;;;;;;5076020;28;20101;-76
2023/10/07 00:37:42;;;;;;;11.25;2.83;;;16.10;99.90;;;;;;5075909;28;20052;-77
2023/10/07 00:40:15;;;;;;;10.07;3.40;;;16.00;99.90;;;;;;5075924;28;20106;-77
2023/10/07 00:42:44;;;;;;;5.88;2.45;;;16.00;99.90;;;;;;5075935;28;20544;-75
2023/10/07 00:45:16;;;;;;;7.35;2.90;;;16.00;99.90;;;;;;5076026;28;20097;-75
2023/10/07 00:47:49;;;;;;;10.52;3.20;;;16.10;99.90;;;;;;5076469;28;20048;-77
2023/10/07 00:50:15;;;;;;;7.90;2.75;;;16.00;99.90;;;;;;5075609;28;20485;-77
2023/10/07 00:55:27;;;;;;;10.15;3.60;;;16.10;99.90;;;;;;5075591;28;20060;-75
2023/10/07 00:58:04;;;;;;;8.43;2.70;;;16.00;99.90;;;;;;5076161;28;20178;-77
2023/10/07 01:05:53;;;;;;;9.82;3.13;;;16.00;99.90;;;;;;5075348;28;20095;-77
2023/10/07 01:08:26;;;;;;;11.45;2.88;;;16.00;99.90;;;;;;5074613;28;20598;-77
2023/10/07 01:11:06;;;;;;;10.13;3.15;;;16.00;99.90;;;;;;5075689;28;20481;-77
2023/10/07 01:13:36;;;;;;;8.02;2.95;;;16.00;99.90;;;;;;5075693;28;20153;-77
2023/10/07 01:16:08;;;;;;;9.30;3.20;;;16.00;99.90;;;;;;5075405;28;20381;-77
2023/10/07 01:18:38;;;;;;;8.52;2.83;;;16.10;99.90;;;;;;5074218;28;20056;-77
2023/10/07 01:21:14;;;;;;;8.85;2.92;;;16.00;99.90;;;;;;5075386;28;20424;-78
2023/10/07 01:23:44;;;;;;;9.85;3.58;;;16.10;99.90;;;;;;5075958;28;20048;-75
2023/10/07 01:26:20;;;;;;;7.47;3.63;;;16.10;99.90;;;;;;5075376;28;20541;-76
2023/10/07 01:28:49;;;;;;;7.30;2.72;;;16.20;99.90;;;;;;5075082;28;20048;-78
2023/10/07 01:31:18;;;;;;;9.40;3.20;;;16.20;99.90;;;;;;5073981;28;20056;-78
2023/10/07 01:33:47;;;;;;;7.30;3.10;;;16.20;99.90;;;;;;5074720;28;20074;-78
2023/10/07 01:36:23;;;;;;;8.52;3.00;;;16.20;99.90;;;;;;5074847;28;20041;-77
2023/10/07 01:38:52;;;;;;;7.35;3.30;;;16.20;99.90;;;;;;5074844;28;20053;-77
2023/10/07 01:41:27;;;;;;;8.77;2.90;;;16.20;99.90;;;;;;5075526;28;20393;-78
2023/10/07 01:43:59;;;;;;;6.38;2.90;;;16.10;99.90;;;;;;5074467;28;20520;-78
2023/10/07 01:46:27;;;;;;;7.05;3.13;;;16.10;99.90;;;;;;5074635;28;20044;-76
2023/10/07 01:48:57;;;;;;;7.13;3.53;;;16.00;99.90;;;;;;5073595;28;20086;-76
2023/10/07 01:51:27;;;;;;;9.68;3.63;;;16.00;99.90;;;;;;5074639;28;20079;-77
2023/10/07 01:54:08;;;;;;;8.63;3.33;;;16.00;99.90;;;;;;5074479;28;20045;-77
2023/10/07 01:56:34;;;;;;;9.68;2.70;;;16.10;99.90;;;;;;5073384;28;20059;-77
2023/10/07 01:59:36;;;;;;;9.38;3.58;;;16.10;99.90;;;;;;5074476;28;20071;-76
2023/10/07 02:02:05;;;;;;;8.82;3.03;;;16.00;99.90;;;;;;5074022;28;20048;-78
2023/10/07 02:04:31;;;;;;;6.95;3.10;;;16.00;99.90;;;;;;5074892;28;20461;-77
2023/10/07 02:06:56;;;;;;;9.73;3.50;;;16.00;99.90;;;;;;5074283;28;20059;-77
2023/10/07 02:09:25;;;;;;;8.98;3.67;;;16.00;99.90;;;;;;5074223;28;20072;-74
2023/10/07 02:11:56;;;;;;;8.52;3.13;;;15.90;99.90;;;;;;5073064;28;20049;-76
2023/10/07 02:14:25;;;;;;;10.02;3.83;;;16.00;99.90;;;;;;5073823;28;20459;-76
2023/10/07 02:16:57;;;;;;;10.38;3.97;;;16.00;99.90;;;;;;5073975;28;20053;-75
2023/10/07 02:19:28;;;;;;;10.07;3.42;;;16.00;99.90;;;;;;5074131;28;20103;-76
2023/10/07 02:21:59;;;;;;;8.43;3.08;;;16.00;99.90;;;;;;5074002;28;20127;-74
2023/10/07 02:24:29;;;;;;;11.30;3.80;;;16.10;99.90;;;;;;5073764;28;20580;-76
2023/10/07 02:26:59;;;;;;;7.63;3.47;;;16.20;99.90;;;;;;5072969;28;20046;-76
2023/10/07 02:29:27;;;;;;;7.78;3.60;;;16.20;99.90;;;;;;5074549;28;20048;-72
2023/10/07 02:32:05;;;;;;;9.75;3.85;;;16.20;99.90;;;;;;5074015;28;20056;-76
2023/10/07 02:34:33;;;;;;;13.32;3.33;;;16.20;99.90;;;;;;5073939;28;20056;-77
2023/10/07 02:37:11;;;;;;;9.95;3.63;;;16.30;99.90;;;;;;5073828;28;20048;-76
2023/10/07 02:39:46;;;;;;;8.40;3.55;;;16.20;99.90;;;;;;5073315;28;20385;-76
2023/10/07 02:42:24;;;;;;;7.85;3.80;;;16.20;99.90;;;;;;5073769;28;20058;-76
2023/10/07 02:45:14;;;;;;;7.18;3.50;;;16.20;99.90;;;;;;5073818;28;20089;-76
2023/10/07 02:47:40;;;;;;;7.75;3.35;;;16.30;99.90;;;;;;5073682;28;20052;-78
2023/10/07 02:50:07;;;;;;;11.68;4.03;;;16.40;99.90;;;;;;5074044;28;20060;-76
2023/10/07 02:52:37;;;;;;;9.27;3.60;;;16.40;99.90;;;;;;5073602;28;20048;-77
2023/10/07 02:55:37;;;;;;;7.43;3.53;;;16.40;99.90;;;;;;5073641;28;20044;-76
2023/10/07 02:57:55;;;;;;;7.32;4.07;;;16.40;99.90;;;;;;5073573;28;20490;-76
2023/10/07 03:00:49;;;;;;;11.55;3.00;;;16.50;99.90;;;;;;5074049;28;20071;-76
2023/10/07 03:05:59;;;;;;;8.20;3.30;;;16.50;99.90;;;;;;5074371;28;20079;-76
2023/10/07 03:11:21;;;;;;;7.57;3.33;;;16.50;99.90;;;;;;5064591;28;20099;-71
2023/10/07 03:13:49;;;;;;;9.25;3.72;;;16.50;99.90;;;;;;5072308;28;20099;-76
2023/10/07 03:21:55;;;;;;;10.65;3.92;;;16.60;99.90;;;;;;5073630;28;20098;-76
2023/10/07 03:27:10;;;;;;;6.32;3.15;;;16.50;99.90;;;;;;5073702;28;20424;-76
2023/10/07 03:29:37;;;;;;;9.00;3.60;;;16.50;99.90;;;;;;5073773;28;20054;-74
2023/10/07 03:32:15;;;;;;;8.05;3.05;;;16.60;99.90;;;;;;5073955;28;20393;-76
2023/10/07 03:34:45;;;;;;;8.40;3.30;;;16.50;99.90;;;;;;5073800;28;20092;-76
2023/10/07 03:42:23;;;;;;;7.30;3.00;;;16.60;99.90;;;;;;5077630;28;20473;-77
2023/10/07 03:44:49;;;;;;;6.72;3.60;;;16.70;99.90;;;;;;5075831;28;20084;-75
2023/10/07 03:47:16;;;;;;;7.93;2.85;;;16.70;99.90;;;;;;5075648;28;20133;-76
2023/10/07 03:49:48;;;;;;;9.90;3.80;;;16.70;99.90;;;;;;5076734;28;20049;-76
2023/10/07 03:52:19;;;;;;;8.63;3.28;;;16.70;99.90;;;;;;5076837;28;20056;-76
2023/10/07 03:54:46;;;;;;;12.20;3.67;;;16.70;99.90;;;;;;5076774;28;20063;-76
2023/10/07 03:57:15;;;;;;;10.48;3.90;;;16.70;99.90;;;;;;5076680;28;20135;-76
2023/10/07 03:59:41;;;;;;;7.22;3.75;;;16.80;99.90;;;;;;5076692;28;20056;-76
2023/10/07 04:02:44;;;;;;;8.02;3.42;;;16.80;99.90;;;;;;5076654;28;20551;-76
2023/10/07 04:05:00;;;;;;;9.82;3.42;;;16.70;99.90;;;;;;5075507;28;20045;-76
2023/10/07 04:07:30;;;;;;;8.80;3.10;;;16.70;99.90;;;;;;5075570;28;20397;-77
2023/10/07 04:10:21;;;;;;;9.15;3.50;;;16.80;99.90;;;;;;5077417;28;20428;-77
2023/10/07 04:12:49;;;;;;;7.43;3.60;;;16.70;99.90;;;;;;5076647;28;20106;-78
2023/10/07 04:15:17;;;;;;;9.40;3.55;;;16.70;99.90;;;;;;5076958;28;20049;-77
2023/10/07 04:17:44;;;;;;;11.38;3.72;;;16.80;99.90;;;;;;5075112;28;20051;-76
2023/10/07 04:20:22;;;;;;;8.55;3.85;;;16.70;99.90;;;;;;5076739;28;20127;-77
2023/10/07 04:23:06;;;;;;;10.43;4.22;;;16.70;99.90;;;;;;5076147;28;20127;-77
2023/10/07 04:25:32;;;;;;;11.75;4.00;;;16.70;99.90;;;;;;5076235;28;20040;-76
2023/10/07 04:27:58;;;;;;;8.35;3.65;;;16.70;99.90;;;;;;5075904;28;20135;-77
2023/10/07 04:30:28;;;;;;;8.68;3.88;;;16.70;99.90;;;;;;5076161;28;20067;-77
2023/10/07 04:33:01;;;;;;;8.00;3.88;;;16.60;99.90;;;;;;5076072;28;20099;-76
2023/10/07 04:35:28;;;;;;;7.50;3.80;;;16.70;99.90;;;;;;5076094;28;20049;-77
2023/10/07 04:37:59;;;;;;;8.65;3.60;;;16.60;99.90;;;;;;5075972;28;20049;-76
2023/10/07 04:43:25;;;;;;;8.98;4.10;;;16.60;99.90;;;;;;5075807;28;20095;-77
2023/10/07 04:45:53;;;;;;;7.05;3.85;;;16.60;99.90;;;;;;5075881;28;20052;-77
2023/10/07 04:48:26;;;;;;;10.77;4.32;;;16.60;99.90;;;;;;5075164;28;20064;-77
2023/10/07 04:51:03;;;;;;;8.80;4.50;;;16.70;99.90;;;;;;5075125;28;20477;-77
2023/10/07 04:53:44;;;;;;;8.80;4.32;;;16.70;99.90;;;;;;5076872;28;20128;-76
2023/10/07 04:56:18;;;;;;;8.95;3.83;;;16.60;99.90;;;;;;5075778;28;20046;-77
2023/10/07 04:58:46;;;;;;;;;;;16.60;99.90;;;;;;5077313;28;20052;-76
2023/10/07 05:03:55;;;;;;;10.75;3.35;;;16.50;99.90;;;;;;5075800;28;20482;-77
2023/10/07 05:06:22;;;;;;;7.43;3.90;;;16.50;99.90;;;;;;5075513;28;20052;-77
2023/10/07 05:08:48;;;;;;;6.50;4.35;;;16.50;99.90;;;;;;5074501;28;20518;-76
2023/10/07 05:11:17;;;;;;;10.15;4.35;;;16.60;99.90;;;;;;5076217;28;20044;-76
2023/10/07 05:13:45;;;;;;;9.20;4.78;;;16.60;99.90;;;;;;5075358;28;20059;-77
2023/10/07 05:16:14;;;;;;;10.25;4.53;;;16.60;99.90;;;;;;5075178;28;20497;-77
2023/10/07 05:18:41;;;;;;;7.70;4.30;;;16.60;99.90;;;;;;5075403;28;20498;-77
2023/10/07 05:21:07;;;;;;;10.60;4.47;;;16.60;99.90;;;;;;5074680;28;20492;-75
2023/10/07 05:23:34;;;;;;;7.53;3.85;;;16.60;99.90;;;;;;5074755;28;20497;-76
2023/10/07 05:26:03;;;;;;;9.68;4.03;;;16.60;99.90;;;;;;5074151;28;20482;-77
2023/10/07 05:28:33;;;;;;;8.35;4.38;;;16.60;99.90;;;;;;5075290;28;20487;-77
2023/10/07 05:31:03;;;;;;;7.85;4.15;;;16.60;99.90;;;;;;5075558;28;20503;-76
2023/10/07 05:33:32;;;;;;;12.40;4.78;;;16.60;99.90;;;;;;5075031;28;20044;-77
2023/10/07 05:36:11;;;;;;;8.25;3.88;;;16.60;99.90;;;;;;5075500;28;20048;-77
2023/10/07 05:38:38;;;;;;;9.52;4.35;;;16.60;99.90;;;;;;5074760;28;20048;-77
2023/10/07 05:41:06;;;;;;;10.18;4.07;;;16.50;99.90;;;;;;5075486;28;20121;-77
2023/10/07 05:43:32;;;;;;;9.18;4.43;;;16.60;99.90;;;;;;5073513;28;20055;-76
2023/10/07 05:45:58;;;;;;;9.20;4.50;;;16.60;99.90;;;;;;5075391;28;20055;-76
2023/10/07 05:48:25;;;;;;;10.02;4.40;;;16.60;99.90;;;;;;5074526;28;20049;-75
2023/10/07 05:50:54;;;;;;;8.27;4.10;;;16.60;99.90;;;;;;5074404;28;20064;-78
2023/10/07 05:53:20;;;;;;;8.88;3.85;;;16.60;99.90;;;;;;5072696;28;20051;-77
2023/10/07 05:55:47;;;;;;;8.90;4.20;;;16.60;99.90;;;;;;5074184;28;20131;-77
2023/10/07 05:58:14;;;;;;;11.82;4.28;;;16.60;99.90;;;;;;5074221;28;20048;-78
2023/10/07 06:00:40;;;;;;;9.43;3.85;;;16.60;99.90;;;;;;5074609;28;20105;-77
2023/10/07 06:03:08;;;;;;;7.60;3.72;;;16.60;99.90;;;;;;5074198;28;20045;-76
2023/10/07 06:05:37;;;;;;;10.60;4.13;;;16.70;99.90;;;;;;5074290;28;20432;-78
2023/10/07 06:08:05;;;;;;;9.65;4.05;;;16.70;99.90;;;;;;5074004;28;20040;-76
2023/10/07 06:10:33;;;;;;;7.72;3.30;;;16.60;99.90;;;;;;5073957;28;20098;-78
2023/10/07 06:12:59;;;;;;;8.13;3.97;;;16.60;99.90;;;;;;5074471;28;20048;-76
2023/10/07 06:15:25;;;;;;;10.98;4.10;;;16.60;99.90;;;;;;5073830;28;20048;-77
2023/10/07 06:17:51;;;;;;;9.07;3.85;;;16.70;99.90;;;;;;5074199;28;20132;-79
2023/10/07 06:20:26;;;;;;;10.40;3.72;;;16.70;99.90;;;;;;5074223;28;20128;-76
2023/10/07 06:22:56;;;;;;;10.73;3.92;;;16.70;99.90;;;;;;5074576;28;20057;-76
2023/10/07 06:25:30;;;;;;;10.70;3.60;;;16.70;99.90;;;;;;5073070;28;20051;-76
2023/10/07 06:27:59;;;;;;;10.75;3.95;;;16.70;99.90;;;;;;5074608;28;20048;-76
2023/10/07 06:30:26;;;;;;;8.07;3.45;;;16.70;99.90;;;;;;5073889;28;20053;-77
2023/10/07 06:32:55;;;;;;;9.63;3.08;;;16.70;99.90;;;;;;5073907;28;20059;-77
2023/10/07 06:35:25;;;;;;;11.32;3.70;;;16.70;99.90;;;;;;5074633;28;20430;-77
2023/10/07 06:37:57;;;;;;;10.27;3.20;;;16.80;99.90;;;;;;5073743;28;20436;-76
2023/10/07 06:40:28;;;;;;;9.15;3.63;;;16.80;99.90;;;;;;5072831;28;20099;-77
2023/10/07 06:43:04;;;;;;;8.43;4.10;;;16.70;99.90;;;;;;5074626;28;20067;-75
2023/10/07 06:45:35;;;;;;;9.77;4.40;;;16.80;99.90;;;;;;5074590;28;20094;-76
2023/10/07 06:48:03;;;;;;;12.75;4.10;;;16.80;99.90;;;;;;5074140;28;20394;-77
2023/10/07 06:50:29;;;;;;;8.38;3.47;;;16.80;99.90;;;;;;5073572;28;20060;-65
2023/10/07 06:52:55;;;;;;;12.45;4.75;;;16.80;99.90;;;;;;5073600;28;20133;-65
2023/10/07 06:55:23;;;;;;;8.45;3.55;;;16.80;99.90;;;;;;5073611;28;20087;-65
2023/10/07 06:57:56;;;;;;;8.60;3.10;;;16.80;99.90;;;;;;5073611;28;20129;-65
2023/10/07 07:00:27;;;;;;;8.30;3.80;;;16.80;99.90;;;;;;5073524;28;20166;-65
2023/10/07 07:02:59;;;;;;;8.77;3.80;;;16.80;99.90;;;;;;5073611;28;20046;-65
2023/10/07 07:05:26;;;;;;;10.15;4.60;;;16.80;99.90;;;;;;5073259;28;20470;-65
2023/10/07 07:07:52;;;;;;;9.35;4.20;;;16.80;99.90;;;;;;5072570;28;20053;-65
2023/10/07 07:10:28;;;;;;;9.13;3.95;;;16.80;99.90;;;;;;5073398;28;20045;-65
2023/10/07 07:13:06;;;;;;;6.22;3.72;;;16.80;99.90;;;;;;5075203;28;20040;-65
2023/10/07 07:15:38;;;;;;;7.82;4.00;;;16.80;99.90;;;;;;5077297;28;20149;-65
2023/10/07 07:20:48;;;;;;;11.40;4.22;;;16.80;99.90;;;;;;5077166;28;20059;-65
2023/10/07 07:23:24;;;;;;;8.48;3.30;;;16.80;99.90;;;;;;5077181;28;20044;-65
2023/10/07 07:26:03;;;;;;;12.97;4.67;;;16.70;99.90;;;;;;5077212;28;20040;-65
2023/10/07 07:28:32;;;;;;;9.23;4.05;;;16.70;99.90;;;;;;5077338;28;20055;-65
2023/10/07 07:31:02;;;;;;;8.88;3.90;;;16.70;99.90;;;;;;5077374;28;20123;-65
2023/10/07 07:33:37;;;;;;;10.25;4.57;;;16.80;99.90;;;;;;5076313;28;20093;-65
2023/10/07 07:36:09;;;;;;;8.77;4.57;;;16.80;99.90;;;;;;5077389;28;20396;-65
2023/10/07 07:38:44;;;;;;;8.40;4.25;;;16.90;99.90;;;;;;5077109;28;20389;-65
2023/10/07 07:41:26;;;;;;;12.20;4.10;;;17.00;99.90;;;;;;5077231;28;20465;-65
2023/10/07 07:43:53;;;;;;;8.50;3.95;;;17.00;99.90;;;;;;5076638;28;20149;-65
2023/10/07 07:46:51;;;;;;;10.65;4.25;;;17.20;99.90;;;;;;5076628;28;20052;-65
2023/10/07 07:49:19;;;;;;;7.50;3.85;;;17.20;99.90;;;;;;5076276;28;20603;-65
2023/10/07 07:51:51;;;;;;;8.05;4.15;;;17.20;99.90;;;;;;5077241;28;20056;-66
2023/10/07 07:54:18;;;;;;;7.70;3.78;;;17.20;99.90;;;;;;5077153;28;20045;-66
2023/10/07 07:56:45;;;;;;;8.13;3.22;;;17.20;99.90;;;;;;5076129;28;20409;-66
2023/10/07 07:59:14;;;;;;;8.82;4.00;;;17.20;99.90;;;;;;5076571;28;20151;-65
2023/10/07 08:01:44;;;;;;;8.80;4.32;;;17.30;99.90;;;;;;5076627;28;20090;-66
2023/10/07 08:04:17;;;;;;;8.18;3.10;;;17.30;99.90;;;;;;5076629;28;20048;-67
2023/10/07 08:06:44;;;;;;;8.68;3.75;;;17.30;99.90;;;;;;5076304;28;20102;-66
2023/10/07 08:09:11;;;;;;;12.18;3.65;;;17.40;99.90;;;;;;5076236;28;20060;-66
2023/10/07 08:11:37;;;;;;;7.60;3.20;;;17.40;99.90;;;;;;5076177;28;20433;-65
2023/10/07 08:14:09;;;;;;;8.82;3.72;;;17.40;99.90;;;;;;5076195;28;20095;-65
2023/10/07 08:16:50;;;;;;;8.57;3.20;;;17.40;99.90;;;;;;5076449;28;20466;-66
2023/10/07 08:19:20;;;;;;;7.60;3.80;;;17.50;99.90;;;;;;5076234;28;20048;-65
2023/10/07 08:21:51;;;;;;;7.25;3.30;;;17.60;99.90;;;;;;5076744;28;20434;-65
2023/10/07 08:24:21;;;;;;;6.75;2.83;;;17.70;99.90;;;;;;5076453;28;20093;-65
2023/10/07 08:26:56;;;;;;;5.22;2.95;;;17.80;99.90;;;;;;5076035;28;20055;-65
2023/10/07 08:29:31;;;;;;;6.85;2.90;;;17.80;99.90;;;;;;5076649;28;20075;-65
2023/10/07 08:32:28;;;;;;;5.70;2.83;;;17.90;99.90;;;;;;5075313;28;20123;-66
2023/10/07 08:34:59;;;;;;;11.02;3.22;;;18.00;99.90;;;;;;5074878;28;20099;-65
2023/10/07 08:37:32;;;;;;;6.97;2.80;;;18.00;99.90;;;;;;5074741;28;20492;-65
2023/10/07 08:40:11;;;;;;;6.18;2.53;;;18.20;99.90;;;;;;5075220;28;20477;-65
2023/10/07 08:42:44;;;;;;;9.38;3.22;;;18.20;99.90;;;;;;5075605;28;20080;-65
2023/10/07 08:45:14;;;;;;;7.32;2.45;;;18.20;99.90;;;;;;5076004;28;20123;-65
2023/10/07 08:47:50;;;;;;;10.23;2.80;;;18.10;99.90;;;;;;5075127;28;20041;-65
2023/10/07 08:50:19;;;;;;;5.68;2.80;;;18.00;99.90;;;;;;5075921;28;20053;-65
2023/10/07 08:52:45;;;;;;;5.78;2.65;;;18.00;99.90;;;;;;5075374;28;20102;-66
2023/10/07 08:55:10;;;;;;;9.85;2.85;;;17.90;99.90;;;;;;5075399;28;20044;-66
2023/10/07 08:57:36;;;;;;;6.20;2.45;;;17.90;99.90;;;;;;5075624;28;20044;-66
2023/10/07 09:00:11;;;;;;;9.45;3.15;;;17.90;99.90;;;;;;5075750;28;20056;-65
2023/10/07 09:02:39;;;;;;;9.35;2.97;;;17.90;99.90;;;;;;5075380;28;20466;-65
2023/10/07 09:05:16;;;;;;;7.00;3.00;;;18.00;99.90;;;;;;5075370;28;20055;-65
2023/10/07 09:07:48;;;;;;;9.07;2.97;;;18.00;99.90;;;;;;5075228;28;20052;-65
2023/10/07 09:10:15;;;;;;;6.85;3.03;;;18.00;99.90;;;;;;5075724;28;20040;-65
2023/10/07 09:12:51;;;;;;;8.57;2.80;;;18.00;99.90;;;;;;5075224;28;20053;-65
2023/10/07 09:15:21;;;;;;;8.45;2.97;;;18.00;99.90;;;;;;5075103;28;20052;-65
2023/10/07 09:17:47;;;;;;;5.57;2.65;;;18.00;99.90;;;;;;5075701;28;20386;-65
2023/10/07 09:20:17;;;;;;;6.43;2.72;;;18.10;99.90;;;;;;5075405;28;20040;-65
2023/10/07 09:22:53;;;;;;;8.65;2.60;;;18.30;99.90;;;;;;5075305;28;20044;-64
2023/10/07 09:25:31;;;;;;;;;;;18.50;99.90;;;;;;5076072;28;20051;-65
2023/10/07 09:27:58;;;;;;;7.38;2.50;;;18.60;99.90;;;;;;5075320;28;19920;-65
2023/10/07 09:33:14;;;;;;;7.28;2.78;;;18.50;99.90;;;;;;5074910;28;20060;-65
2023/10/07 09:35:46;;;;;;;6.20;3.00;;;18.50;99.90;;;;;;5073333;28;20059;-65
2023/10/07 09:38:22;;;;;;;7.63;2.70;;;18.40;99.90;;;;;;5074796;28;20111;-65
2023/10/07 09:43:27;;;;;;;6.45;2.30;;;18.40;99.90;;;;;;5075183;28;19920;-64
2023/10/07 09:45:53;;;;;;;6.45;2.47;;;18.40;99.90;;;;;;5075146;28;20056;-65
2023/10/07 09:48:31;;;;;;;7.22;2.65;;;18.50;99.90;;;;;;5074401;28;20485;-65
2023/10/07 09:51:02;;;;;;;5.80;2.63;;;18.50;99.90;;;;;;5074894;28;20084;-65
2023/10/07 09:53:49;;;;;;;7.78;2.65;;;18.50;99.90;;;;;;5074436;28;20549;-65
2023/10/07 09:56:43;;;;;;;6.05;2.42;;;18.60;99.90;;;;;;5074664;28;20144;-65
2023/10/07 09:59:59;;;;;;;6.90;2.70;;;18.70;99.90;;;;;;5074940;28;20067;-65
2023/10/07 10:02:52;;;;;;;8.55;3.17;;;18.70;99.90;;;;;;5051954;28;20053;-65
2023/10/07 10:05:37;;;;;;;7.00;2.25;;;18.70;99.90;;;;;;5051898;28;20079;-65
2023/10/07 10:09:08;;;;;;;8.75;2.70;;;18.70;99.90;;;;;;5063628;28;20104;-67
2023/10/07 10:16:48;;;;;;;7.43;2.30;;;18.70;99.90;;;;;;5064192;28;20101;-65
2023/10/07 10:19:25;;;;;;;7.35;2.85;;;18.80;99.90;;;;;;5073793;28;20045;-66
2023/10/07 10:21:52;;;;;;;6.70;3.05;;;18.90;99.90;;;;;;5073966;28;20052;-65
2023/10/07 10:24:23;;;;;;;4.35;2.30;;;18.90;99.90;;;;;;5074090;28;20040;-66
2023/10/07 10:26:54;;;;;;;7.55;2.85;;;18.90;99.90;;;;;;5073581;28;20040;-65
2023/10/07 10:29:25;;;;;;;6.57;2.80;;;18.90;99.90;;;;;;5073758;28;20084;-66
2023/10/07 10:31:58;;;;;;;5.43;2.10;;;18.90;99.90;;;;;;5073974;28;20055;-66
2023/10/07 10:34:26;;;;;;;8.50;2.67;;;18.90;99.90;;;;;;5074029;28;20048;-65
2023/10/07 10:36:55;;;;;;;8.23;2.85;;;18.80;99.90;;;;;;5073614;28;20088;-66
2023/10/07 10:39:25;;;;;;;8.15;2.80;;;18.70;99.90;;;;;;5073779;28;20055;-66
2023/10/07 10:41:54;;;;;;;7.03;2.60;;;18.70;99.90;;;;;;5073417;28;20048;-66
2023/10/07 10:44:21;;;;;;;8.50;2.70;;;18.80;99.90;;;;;;5073453;28;20044;-64
2023/10/07 10:46:51;;;;;;;13.10;2.90;;;18.80;99.90;;;;;;5072575;28;20044;-64
2023/10/07 10:49:21;;;;;;;12.20;3.03;;;18.80;99.90;;;;;;5072533;28;20060;-64
2023/10/07 10:51:50;;;;;;;7.68;3.20;;;18.90;99.90;;;;;;5073812;28;20056;-64
2023/10/07 10:54:18;;;;;;;4.72;2.17;;;19.00;99.90;;;;;;5073315;28;20044;-65
2023/10/07 10:56:57;;;;;;;6.57;2.10;;;19.10;99.90;;;;;;5073173;28;20052;-65
2023/10/07 10:59:36;;;;;;;7.07;2.40;;;19.20;99.90;;;;;;5073783;28;20488;-65
2023/10/07 11:02:05;;;;;;;7.32;3.13;;;19.40;99.90;;;;;;5073098;28;20051;-65
2023/10/07 11:04:32;;;;;;;8.55;2.92;;;19.40;99.90;;;;;;5073197;28;20052;-65
2023/10/07 11:06:59;;;;;;;6.70;2.60;;;19.40;99.90;;;;;;5073229;28;20052;-65
2023/10/07 11:09:35;;;;;;;7.45;2.80;;;19.40;99.90;;;;;;5073164;28;20048;-65
2023/10/07 11:12:12;;;;;;;10.18;3.33;;;19.40;99.90;;;;;;5073890;28;20094;-65
2023/10/07 11:14:41;;;;;;;7.68;3.05;;;19.30;99.90;;;;;;5073335;28;20485;-64
2023/10/07 11:17:12;;;;;;;8.80;3.03;;;19.30;99.90;;;;;;5073812;28;20037;-65
2023/10/07 11:19:51;;;;;;;7.32;2.58;;;19.40;99.90;;;;;;5072984;28;20054;-65
2023/10/07 11:22:21;;;;;;;6.53;2.67;;;19.40;99.90;;;;;;5072851;28;20059;-65
2023/10/07 11:24:50;;;;;;;8.55;3.10;;;19.50;99.90;;;;;;5072985;28;20048;-65
2023/10/07 11:27:16;;;;;;;7.38;2.88;;;19.50;99.90;;;;;;5073079;28;20127;-65
2023/10/07 11:29:42;;;;;;;7.78;2.58;;;19.50;99.90;;;;;;5072922;28;20058;-65
2023/10/07 11:32:08;;;;;;;8.75;2.78;;;19.40;99.90;;;;;;5071965;28;20493;-64
2023/10/07 11:34:40;;;;;;;8.20;2.60;;;19.30;99.90;;;;;;5072961;28;20401;-65
2023/10/07 11:37:21;;;;;;;6.82;2.55;;;19.20;99.90;;;;;;5072991;28;20095;-65
2023/10/07 11:39:48;;;;;;;6.63;3.10;;;19.20;99.90;;;;;;5072961;28;20528;-65
2023/10/07 11:42:21;;;;;;;10.93;2.75;;;19.10;99.90;;;;;;5072769;28;20113;-65
2023/10/07 11:44:56;;;;;;;7.30;2.78;;;19.10;99.90;;;;;;5072849;28;20166;-65
2023/10/07 11:47:26;;;;;;;4.93;2.40;;;19.10;99.90;;;;;;5072621;28;20048;-65
2023/10/07 11:49:52;;;;;;;7.15;2.78;;;19.10;99.90;;;;;;5073296;28;20329;-65
2023/10/07 11:52:19;;;;;;;8.88;2.97;;;19.10;99.90;;;;;;5072989;28;20087;-65
2023/10/07 11:54:48;;;;;;;7.80;3.05;;;19.00;99.90;;;;;;5072750;28;20048;-65
2023/10/07 11:57:17;;;;;;;6.85;3.03;;;19.00;99.90;;;;;;5073242;28;20048;-65
2023/10/07 11:59:44;;;;;;;6.80;2.63;;;18.90;99.90;;;;;;5075879;28;20075;-64
2023/10/07 12:02:11;;;;;;;8.13;2.83;;;18.90;99.90;;;;;;5076340;28;20044;-65
2023/10/07 12:04:44;;;;;;;6.15;2.60;;;18.90;99.90;;;;;;5076289;28;20132;-65
2023/10/07 12:07:14;;;;;;;8.07;2.92;;;18.90;99.90;;;;;;5076647;28;20398;-65
2023/10/07 12:09:41;;;;;;;10.25;3.35;;;18.90;99.90;;;;;;5075096;28;20056;-65
2023/10/07 12:12:10;;;;;;;7.20;2.92;;;19.00;99.90;;;;;;5075906;28;20501;-65
2023/10/07 12:14:36;;;;;;;8.68;3.40;;;19.20;99.90;;;;;;5076106;28;20048;-65
2023/10/07 12:17:04;;;;;;;6.35;3.17;;;19.30;99.90;;;;;;5076698;28;20038;-65
2023/10/07 12:19:31;;;;;;;6.35;2.72;;;19.40;99.90;;;;;;5075899;28;20063;-65
2023/10/07 12:21:59;;;;;;;8.50;3.15;;;19.50;99.90;;;;;;5075822;28;20041;-65
2023/10/07 12:24:24;;;;;;;7.00;2.47;;;19.40;99.90;;;;;;5075534;28;20055;-65
2023/10/07 12:26:50;;;;;;;7.97;3.13;;;19.30;99.90;;;;;;5076182;28;20485;-65
2023/10/07 12:29:19;;;;;;;7.85;3.05;;;19.40;99.90;;;;;;5075930;28;20048;-65
2023/10/07 12:31:45;;;;;;;6.28;2.85;;;19.50;99.90;;;;;;5075769;28;20033;-65
2023/10/07 12:34:16;;;;;;;6.13;2.75;;;19.50;99.90;;;;;;5075581;28;20047;-65
2023/10/07 12:36:42;;;;;;;7.28;2.38;;;19.40;99.90;;;;;;5076673;28;20420;-65
2023/10/07 12:39:11;;;;;;;7.75;3.05;;;19.40;99.90;;;;;;5076175;28;20113;-66
2023/10/07 12:41:40;;;;;;;6.53;2.60;;;19.40;99.90;;;;;;5075537;28;20048;-65
2023/10/07 12:44:10;;;;;;;6.13;2.58;;;19.40;99.90;;;;;;5075534;28;20107;-65
2023/10/07 12:46:41;;;;;;;7.57;2.70;;;19.50;99.90;;;;;;5075777;28;20397;-65
2023/10/07 12:49:13;;;;;;;9.32;2.60;;;19.60;99.90;;;;;;5075474;28;20105;-65
2023/10/07 12:51:45;;;;;;;8.10;3.15;;;19.70;99.90;;;;;;5075763;28;20398;-64
2023/10/07 12:54:11;;;;;;;7.85;3.03;;;19.70;99.90;;;;;;5076110;28;20447;-65
2023/10/07 12:56:45;;;;;;;8.50;2.60;;;19.50;99.90;;;;;;5075289;28;20099;-65
2023/10/07 12:59:18;;;;;;;10.35;3.00;;;19.40;99.90;;;;;;5075907;28;20052;-65
2023/10/07 13:01:59;;;;;;;6.32;2.83;;;19.40;99.90;;;;;;5075173;28;20048;-65
2023/10/07 13:04:34;;;;;;;8.05;2.97;;;19.50;99.90;;;;;;5075710;28;20102;-66
2023/10/07 13:07:03;;;;;;;6.90;2.80;;;19.60;99.90;;;;;;5075301;28;20417;-65
2023/10/07 13:09:32;;;;;;;5.85;2.50;;;19.70;99.90;;;;;;5074697;28;20084;-64
2023/10/07 13:11:59;;;;;;;7.32;3.28;;;19.90;99.90;;;;;;5075309;28;20062;-65
2023/10/07 13:14:26;;;;;;;7.57;2.90;;;19.90;99.90;;;;;;5074807;28;20489;-65
2023/10/07 13:16:59;;;;;;;9.35;2.80;;;19.90;99.90;;;;;;5074973;28;20044;-65
2023/10/07 13:19:35;;;;;;;6.63;2.75;;;19.80;99.90;;;;;;5074906;28;20101;-65
2023/10/07 13:22:05;;;;;;;10.07;2.90;;;19.90;99.90;;;;;;5075135;28;20076;-65
2023/10/07 13:24:34;;;;;;;9.18;3.05;;;19.80;99.90;;;;;;5073829;28;20056;-65
2023/10/07 13:27:04;;;;;;;9.88;3.83;;;19.70;99.90;;;;;;5074414;28;20176;-65
2023/10/07 13:29:34;;;;;;;5.45;2.67;;;19.60;99.90;;;;;;5075407;28;20055;-65
2023/10/07 13:32:03;;;;;;;7.47;2.45;;;19.50;99.90;;;;;;5075256;28;20105;-66
2023/10/07 13:34:30;;;;;;;7.20;2.80;;;19.40;99.90;;;;;;5074611;28;20037;-65
2023/10/07 13:36:56;;;;;;;7.18;3.00;;;19.40;99.90;;;;;;5074612;28;20044;-65
2023/10/07 13:39:24;;;;;;;8.48;2.70;;;19.30;99.90;;;;;;5073731;28;20397;-65
2023/10/07 13:41:52;;;;;;;6.05;2.67;;;19.30;99.90;;;;;;5074012;28;20059;-65
2023/10/07 13:44:18;;;;;;;9.88;3.03;;;19.20;99.90;;;;;;5074384;28;20049;-66
2023/10/07 13:46:45;;;;;;;9.50;3.13;;;19.20;99.90;;;;;;5074211;28;20053;-66
2023/10/07 13:49:13;;;;;;;6.00;3.13;;;19.20;99.90;;;;;;5074323;28;20404;-66
2023/10/07 13:51:41;;;;;;;9.05;3.53;;;19.20;99.90;;;;;;5074163;28;20071;-66